Flight Track Log - Related Links

Times and Time Zones

All times are in EDT time to prevent confusion due to time zone crossing. See the AWI3725 flight status page for this flight to view local times or setup timezone preferences in your user account.

Time Position Orientation Groundspeed Altitude Reporting Facility
EDT Latitude Longitude Course Direction KTS MPH feet Rate Location/Type
Sat 12:19:10 PM 35.2353 -80.9594 North 175 201 1,600  Level Atlanta Center
Sat 12:20:11 PM 35.2800 -80.9933 328° Northwest 204 235 3,500 1,559 Climbing Atlanta Center
Sat 12:21:00 PM 35.4789 -81.0502 343° North  Level Estimated
Sat 12:21:17 PM 35.3447 -81.0011 354° North 255 293 4,900  Level Atlanta Center
Sat 12:22:00 PM 35.5578 -80.9908 31° Northeast  Level FlightAware Approximate
Sat 12:22:16 PM 35.4153 -80.9833 12° North 255 293 6,500  Level Atlanta Center
Sat 12:23:00 PM 35.6367 -80.9312 32° Northeast  Level FlightAware Approximate
Sat 12:23:16 PM 35.4878 -80.9575 16° North 260 299 9,300  Level Atlanta Center
Sat 12:24:00 PM 35.7243 -80.9683 North  Level Estimated
Sat 12:24:17 PM 35.5789 -80.9311 13° North 280 322 10,500  Level Atlanta Center
Sat 12:25:17 PM 35.6697 -80.8997 16° North 315 362 12,100 1,800 Climbing Atlanta Center
Sat 12:26:17 PM 35.7678 -80.9011 359° North 342 394 14,100 1,750 Climbing Atlanta Center
Sat 12:27:17 PM 35.8583 -80.9358 343° North 337 388 15,600 1,450 Climbing Atlanta Center
Sat 12:28:17 PM 35.9531 -80.9683 344° North 337 388 17,000 1,261 Climbing Atlanta Center
Sat 12:29:16 PM 36.0478 -81.0031 343° North 347 399 18,100 1,100 Climbing Atlanta Center
Sat 12:30:17 PM 36.1467 -81.0381 344° North 352 405 19,200 1,041 Climbing Atlanta Center
Sat 12:31:17 PM 36.2436 -81.0756 343° North 357 411 20,200 1,109 Climbing Atlanta Center
Sat 12:32:16 PM 36.3489 -81.1131 344° North 373 429 21,400 1,000 Climbing Atlanta Center
Sat 12:33:17 PM 36.4517 -81.1481 345° North 380 437 22,200 987 Climbing Atlanta Center
Sat 12:34:48 PM 36.6081 -81.2081 343° North 387 445 23,900 1,020 Climbing Indianapolis Center
Sat 12:35:50 PM 36.7075 -81.2456 343° North 387 445 24,800 774 Climbing Indianapolis Center
Sat 12:36:52 PM 36.8064 -81.2814 344° North 384 442 25,500 581 Climbing Indianapolis Center
Sat 12:37:54 PM 36.9067 -81.3194 343° North 384 442 26,000 244 Climbing Indianapolis Center
Sat 12:38:55 PM 37.0294 -81.3658 343° North 387 445 26,000  Level Indianapolis Center
Sat 12:39:57 PM 37.1322 -81.4044 343° North 395 455 26,000  Level Indianapolis Center
Sat 12:40:59 PM 37.2414 -81.4450 344° North 401 461 26,000  Level Indianapolis Center
Sat 12:42:00 PM 37.3461 -81.4839 344° North 402 463 26,000  Level Indianapolis Center
Sat 12:43:02 PM 37.4728 -81.5322 343° North 402 463 26,000  Level Indianapolis Center
Sat 12:44:04 PM 37.5794 -81.5733 343° North 402 463 26,000  Level Indianapolis Center
Sat 12:45:05 PM 37.6858 -81.6136 343° North 401 461 26,000  Level Indianapolis Center
Sat 12:46:07 PM 37.7917 -81.6533 343° North 401 461 26,000  Level Indianapolis Center
Sat 12:47:09 PM 37.9050 -81.6967 343° North 401 461 26,000  Level Indianapolis Center
Sat 12:48:11 PM 38.0119 -81.7381 343° North 400 460 26,000  Level Indianapolis Center
Sat 12:49:13 PM 38.1181 -81.7792 343° North 400 460 26,000 -49 Level Indianapolis Center
Sat 12:50:14 PM 38.2247 -81.8206 343° North 400 460 25,900 -293 Descending Indianapolis Center
Sat 12:51:16 PM 38.3333 -81.8617 343° North 400 460 25,400 -484 Descending Indianapolis Center
Sat 12:52:18 PM 38.4422 -81.9053 343° North 401 461 24,900 -484 Descending Indianapolis Center
Sat 12:53:20 PM 38.5547 -81.9486 343° North 412 474 24,400 -435 Descending Indianapolis Center
Sat 12:54:22 PM 38.6886 -82.0008 343° North 414 476 24,000 -435 Descending Indianapolis Center
Sat 12:55:24 PM 38.7983 -82.0439 343° North 412 474 23,500 -1,113 Descending Indianapolis Center
Sat 12:56:26 PM 38.9064 -82.0856 343° North 407 468 21,700 -1,839 Descending Indianapolis Center
Sat 12:57:28 PM 39.0108 -82.1267 343° North 394 453 19,700 -1,839 Descending Indianapolis Center
Sat 12:58:30 PM 39.1106 -82.1667 343° North 382 440 17,900 -1,790 Descending Indianapolis Center
Sat 12:59:32 PM 39.2069 -82.2047 343° North 368 423 16,000 -1,887 Descending Indianapolis Center
Sat 01:00:34 PM 39.2931 -82.2386 343° North 336 387 14,000 -2,081 Descending Indianapolis Center
Sat 01:01:36 PM 39.3911 -82.2783 343° North 314 361 11,700 -1,452 Descending Indianapolis Center
Sat 01:02:38 PM 39.4664 -82.3089 343° North 313 360 11,000 -341 Descending Indianapolis Center
Sat 01:03:39 PM 39.5606 -82.3486 342° North 319 367 11,000 -295 Level Indianapolis Center
Sat 01:04:40 PM 39.6311 -82.4028 329° Northwest 286 329 10,400 -836 Descending Indianapolis Center
Sat 01:05:41 PM 39.6958 -82.4533 329° Northwest 244 281 9,300 -1,359 Descending Indianapolis Center
Sat 01:06:48 PM 39.7608 -82.5014 330° Northwest 243 280 7,500 -1,574 Descending Indianapolis Center
Sat 01:07:43 PM 39.8114 -82.5444 327° Northwest 242 278 6,100 -1,500 Descending Indianapolis Center
Sat 01:08:44 PM 39.8656 -82.5964 324° Northwest 239 275 4,600 -1,385 Descending Indianapolis Center
Sat 01:09:53 PM 39.9200 -82.6475 324° Northwest 243 280 3,100 -1,033 Descending Indianapolis Center
Sat 01:10:46 PM 39.9681 -82.7133 314° West 221 254 2,500 -316 Descending Indianapolis Center
Sat 01:11:47 PM 39.9925 -82.7664 301° West 159 183 2,500  Level Indianapolis Center
Sat 01:11:57 PM 39.9967 -82.7711 319° Northwest 196 226 2,500 -787 Level Indianapolis Center
Sat 01:12:48 PM 39.9978 -82.8219 272° West 157 181 1,700 -774 Descending Indianapolis Center
Sat 01:12:59 PM 39.9994 -82.8267 295° West 170 196 1,700 -329 Level Indianapolis Center
Sat 01:14:01 PM 40.0028 -82.8844 274° West 161 185 1,300 -387 Descending Indianapolis Center
Sat 01:16:00 PM 39.9969 -82.8922 311° West  Level Estimated

Login

Don't have an account? Register now (free) for customized features, flight alerts, and more!